sensor_id;sensor_type;location;lat;lon;timestamp;temperature;humidity
11615;DHT22;5863;52.832;4.758;2023-04-24T00:00:54;11.20;99.90
11615;DHT22;5863;52.832;4.758;2023-04-24T00:03:22;11.20;99.90
11615;DHT22;5863;52.832;4.758;2023-04-24T00:05:49;11.20;99.90
11615;DHT22;5863;52.832;4.758;2023-04-24T00:08:16;11.20;99.90
11615;DHT22;5863;52.832;4.758;2023-04-24T00:10:43;11.30;99.90
11615;DHT22;5863;52.832;4.758;2023-04-24T00:13:10;11.20;99.90
11615;DHT22;5863;52.832;4.758;2023-04-24T00:15:36;11.10;99.90
11615;DHT22;5863;52.832;4.758;2023-04-24T00:18:05;11.10;99.90
11615;DHT22;5863;52.832;4.758;2023-04-24T00:20:31;11.10;99.90
11615;DHT22;5863;52.832;4.758;2023-04-24T00:22:59;11.00;99.90
11615;DHT22;5863;52.832;4.758;2023-04-24T00:25:26;11.10;99.90
11615;DHT22;5863;52.832;4.758;2023-04-24T00:27:53;11.00;99.90
11615;DHT22;5863;52.832;4.758;2023-04-24T00:30:19;11.10;99.90
11615;DHT22;5863;52.832;4.758;2023-04-24T00:32:46;11.10;99.90
11615;DHT22;5863;52.832;4.758;2023-04-24T00:35:14;11.10;99.90
11615;DHT22;5863;52.832;4.758;2023-04-24T00:37:41;11.00;99.90
11615;DHT22;5863;52.832;4.758;2023-04-24T00:40:08;11.00;99.90
11615;DHT22;5863;52.832;4.758;2023-04-24T00:42:35;11.10;99.90
11615;DHT22;5863;52.832;4.758;2023-04-24T00:45:02;11.10;99.90
11615;DHT22;5863;52.832;4.758;2023-04-24T00:47:30;11.10;99.90
11615;DHT22;5863;52.832;4.758;2023-04-24T00:49:58;11.00;99.90
11615;DHT22;5863;52.832;4.758;2023-04-24T00:52:26;11.00;99.90
11615;DHT22;5863;52.832;4.758;2023-04-24T00:54:53;11.00;99.90
11615;DHT22;5863;52.832;4.758;2023-04-24T00:57:20;11.00;99.90
11615;DHT22;5863;52.832;4.758;2023-04-24T00:59:49;11.00;99.90
11615;DHT22;5863;52.832;4.758;2023-04-24T01:02:16;11.00;99.90
11615;DHT22;5863;52.832;4.758;2023-04-24T01:04:42;11.00;99.90
11615;DHT22;5863;52.832;4.758;2023-04-24T01:07:09;11.10;99.90
11615;DHT22;5863;52.832;4.758;2023-04-24T01:09:40;11.10;99.90
11615;DHT22;5863;52.832;4.758;2023-04-24T01:12:07;11.10;99.90
11615;DHT22;5863;52.832;4.758;2023-04-24T01:14:34;11.00;99.90
11615;DHT22;5863;52.832;4.758;2023-04-24T01:17:01;11.10;99.90
11615;DHT22;5863;52.832;4.758;2023-04-24T01:19:27;11.10;99.90
11615;DHT22;5863;52.832;4.758;2023-04-24T01:21:58;11.10;99.90
11615;DHT22;5863;52.832;4.758;2023-04-24T01:24:26;11.00;99.90
11615;DHT22;5863;52.832;4.758;2023-04-24T01:26:53;11.00;99.90
11615;DHT22;5863;52.832;4.758;2023-04-24T01:29:20;11.00;99.90
11615;DHT22;5863;52.832;4.758;2023-04-24T01:31:47;11.00;99.90
11615;DHT22;5863;52.832;4.758;2023-04-24T01:34:14;11.00;99.90
11615;DHT22;5863;52.832;4.758;2023-04-24T01:36:43;11.00;99.90
11615;DHT22;5863;52.832;4.758;2023-04-24T01:39:11;10.90;99.90
11615;DHT22;5863;52.832;4.758;2023-04-24T01:41:40;11.00;99.90
11615;DHT22;5863;52.832;4.758;2023-04-24T01:44:06;11.00;99.90
11615;DHT22;5863;52.832;4.758;2023-04-24T01:46:33;11.00;99.90
11615;DHT22;5863;52.832;4.758;2023-04-24T01:49:01;11.00;99.90
11615;DHT22;5863;52.832;4.758;2023-04-24T01:51:28;10.90;99.90
11615;DHT22;5863;52.832;4.758;2023-04-24T01:53:56;10.90;99.90
11615;DHT22;5863;52.832;4.758;2023-04-24T01:56:23;10.90;99.90
11615;DHT22;5863;52.832;4.758;2023-04-24T01:58:52;10.90;99.90
11615;DHT22;5863;52.832;4.758;2023-04-24T02:01:20;10.90;99.90
11615;DHT22;5863;52.832;4.758;2023-04-24T02:03:47;10.90;99.90
11615;DHT22;5863;52.832;4.758;2023-04-24T02:06:14;10.80;99.90
11615;DHT22;5863;52.832;4.758;2023-04-24T02:08:41;10.70;99.90
11615;DHT22;5863;52.832;4.758;2023-04-24T02:11:08;10.80;99.90
11615;DHT22;5863;52.832;4.758;2023-04-24T02:13:35;10.80;99.90
11615;DHT22;5863;52.832;4.758;2023-04-24T02:16:03;10.80;99.90
11615;DHT22;5863;52.832;4.758;2023-04-24T02:18:30;10.80;99.90
11615;DHT22;5863;52.832;4.758;2023-04-24T02:20:58;10.80;99.90
11615;DHT22;5863;52.832;4.758;2023-04-24T02:23:25;10.80;99.90
11615;DHT22;5863;52.832;4.758;2023-04-24T02:25:52;10.80;99.90
11615;DHT22;5863;52.832;4.758;2023-04-24T02:28:19;10.90;99.90
11615;DHT22;5863;52.832;4.758;2023-04-24T02:30:46;10.90;99.90
11615;DHT22;5863;52.832;4.758;2023-04-24T02:33:14;10.90;99.90
11615;DHT22;5863;52.832;4.758;2023-04-24T02:35:41;10.90;99.90
11615;DHT22;5863;52.832;4.758;2023-04-24T02:38:07;10.90;99.90
11615;DHT22;5863;52.832;4.758;2023-04-24T02:40:34;10.90;99.90
11615;DHT22;5863;52.832;4.758;2023-04-24T02:43:00;10.90;99.90
11615;DHT22;5863;52.832;4.758;2023-04-24T02:45:28;10.90;99.90
11615;DHT22;5863;52.832;4.758;2023-04-24T02:47:54;10.90;99.90
11615;DHT22;5863;52.832;4.758;2023-04-24T02:50:22;10.90;99.90
11615;DHT22;5863;52.832;4.758;2023-04-24T02:52:49;10.90;99.90
11615;DHT22;5863;52.832;4.758;2023-04-24T02:55:16;10.90;99.90
11615;DHT22;5863;52.832;4.758;2023-04-24T02:57:42;10.90;99.90
11615;DHT22;5863;52.832;4.758;2023-04-24T03:00:10;11.00;99.90
11615;DHT22;5863;52.832;4.758;2023-04-24T03:02:37;11.00;99.90
11615;DHT22;5863;52.832;4.758;2023-04-24T03:05:04;11.00;99.90
11615;DHT22;5863;52.832;4.758;2023-04-24T03:07:32;10.90;99.90
11615;DHT22;5863;52.832;4.758;2023-04-24T03:09:59;10.90;99.90
11615;DHT22;5863;52.832;4.758;2023-04-24T03:12:26;10.90;99.90
11615;DHT22;5863;52.832;4.758;2023-04-24T03:14:52;10.90;99.90
11615;DHT22;5863;52.832;4.758;2023-04-24T03:17:19;10.90;99.90
11615;DHT22;5863;52.832;4.758;2023-04-24T03:19:46;10.90;99.90
11615;DHT22;5863;52.832;4.758;2023-04-24T03:22:13;10.90;99.90
11615;DHT22;5863;52.832;4.758;2023-04-24T03:24:41;10.90;99.90
11615;DHT22;5863;52.832;4.758;2023-04-24T03:27:08;10.90;99.90
11615;DHT22;5863;52.832;4.758;2023-04-24T03:29:34;10.90;99.90
11615;DHT22;5863;52.832;4.758;2023-04-24T03:32:01;11.00;99.90
11615;DHT22;5863;52.832;4.758;2023-04-24T03:34:28;11.00;99.90
11615;DHT22;5863;52.832;4.758;2023-04-24T03:36:54;11.00;99.90
11615;DHT22;5863;52.832;4.758;2023-04-24T03:39:22;11.00;99.90
11615;DHT22;5863;52.832;4.758;2023-04-24T03:41:51;10.90;99.90
11615;DHT22;5863;52.832;4.758;2023-04-24T03:44:17;10.90;99.90
11615;DHT22;5863;52.832;4.758;2023-04-24T03:46:44;10.90;99.90
11615;DHT22;5863;52.832;4.758;2023-04-24T03:49:11;11.00;99.90
11615;DHT22;5863;52.832;4.758;2023-04-24T03:51:37;11.00;99.90
11615;DHT22;5863;52.832;4.758;2023-04-24T03:54:04;11.00;99.90
11615;DHT22;5863;52.832;4.758;2023-04-24T03:56:31;11.00;99.90
11615;DHT22;5863;52.832;4.758;2023-04-24T03:58:59;11.00;99.90
11615;DHT22;5863;52.832;4.758;2023-04-24T04:01:26;11.00;99.90
11615;DHT22;5863;52.832;4.758;2023-04-24T04:03:53;11.00;99.90
11615;DHT22;5863;52.832;4.758;2023-04-24T04:06:20;11.00;99.90
11615;DHT22;5863;52.832;4.758;2023-04-24T04:08:47;11.00;99.90
11615;DHT22;5863;52.832;4.758;2023-04-24T04:11:14;11.00;99.90
11615;DHT22;5863;52.832;4.758;2023-04-24T04:13:40;11.00;99.90
11615;DHT22;5863;52.832;4.758;2023-04-24T04:16:09;11.00;99.90
11615;DHT22;5863;52.832;4.758;2023-04-24T04:18:35;11.00;99.90
11615;DHT22;5863;52.832;4.758;2023-04-24T04:21:03;11.00;99.90
11615;DHT22;5863;52.832;4.758;2023-04-24T04:23:29;11.00;99.90
11615;DHT22;5863;52.832;4.758;2023-04-24T04:25:57;11.00;99.90
11615;DHT22;5863;52.832;4.758;2023-04-24T04:28:24;10.90;99.90
11615;DHT22;5863;52.832;4.758;2023-04-24T04:30:51;10.90;99.90
11615;DHT22;5863;52.832;4.758;2023-04-24T04:33:20;10.90;99.90
11615;DHT22;5863;52.832;4.758;2023-04-24T04:35:47;10.90;99.90
11615;DHT22;5863;52.832;4.758;2023-04-24T04:38:15;10.80;99.90
11615;DHT22;5863;52.832;4.758;2023-04-24T04:40:42;10.80;99.90
11615;DHT22;5863;52.832;4.758;2023-04-24T04:43:08;10.80;99.90
11615;DHT22;5863;52.832;4.758;2023-04-24T04:45:36;10.70;99.90
11615;DHT22;5863;52.832;4.758;2023-04-24T04:48:04;10.70;99.90
11615;DHT22;5863;52.832;4.758;2023-04-24T04:50:34;10.60;99.90
11615;DHT22;5863;52.832;4.758;2023-04-24T04:53:01;10.50;99.90
11615;DHT22;5863;52.832;4.758;2023-04-24T04:55:28;10.50;99.90
11615;DHT22;5863;52.832;4.758;2023-04-24T04:57:54;10.50;99.90
11615;DHT22;5863;52.832;4.758;2023-04-24T05:00:22;10.40;99.90
11615;DHT22;5863;52.832;4.758;2023-04-24T05:02:50;10.40;99.90
11615;DHT22;5863;52.832;4.758;2023-04-24T05:05:17;10.40;99.90
11615;DHT22;5863;52.832;4.758;2023-04-24T05:07:45;10.40;99.90
11615;DHT22;5863;52.832;4.758;2023-04-24T05:10:13;10.30;99.90
11615;DHT22;5863;52.832;4.758;2023-04-24T05:12:40;10.30;99.90
11615;DHT22;5863;52.832;4.758;2023-04-24T05:15:07;10.30;99.90
11615;DHT22;5863;52.832;4.758;2023-04-24T05:17:34;10.30;99.90
11615;DHT22;5863;52.832;4.758;2023-04-24T05:20:01;10.10;99.90
11615;DHT22;5863;52.832;4.758;2023-04-24T05:22:28;10.30;99.90
11615;DHT22;5863;52.832;4.758;2023-04-24T05:24:56;10.20;99.90
11615;DHT22;5863;52.832;4.758;2023-04-24T05:27:24;10.20;99.90
11615;DHT22;5863;52.832;4.758;2023-04-24T05:29:50;10.20;99.90
11615;DHT22;5863;52.832;4.758;2023-04-24T05:32:17;10.20;99.90
11615;DHT22;5863;52.832;4.758;2023-04-24T05:34:44;10.30;99.90
11615;DHT22;5863;52.832;4.758;2023-04-24T05:37:10;10.30;99.90
11615;DHT22;5863;52.832;4.758;2023-04-24T05:39:37;10.20;99.90
11615;DHT22;5863;52.832;4.758;2023-04-24T05:42:06;10.20;99.90
11615;DHT22;5863;52.832;4.758;2023-04-24T05:44:33;10.20;99.90
11615;DHT22;5863;52.832;4.758;2023-04-24T05:46:59;10.20;99.90
11615;DHT22;5863;52.832;4.758;2023-04-24T05:49:27;10.20;99.90
11615;DHT22;5863;52.832;4.758;2023-04-24T05:51:54;10.20;99.90
11615;DHT22;5863;52.832;4.758;2023-04-24T05:54:20;10.20;99.90
11615;DHT22;5863;52.832;4.758;2023-04-24T05:56:47;10.20;99.90
11615;DHT22;5863;52.832;4.758;2023-04-24T05:59:15;10.20;99.90
11615;DHT22;5863;52.832;4.758;2023-04-24T06:01:42;10.20;99.90
11615;DHT22;5863;52.832;4.758;2023-04-24T06:04:10;10.20;99.90
11615;DHT22;5863;52.832;4.758;2023-04-24T06:06:36;10.20;99.90
11615;DHT22;5863;52.832;4.758;2023-04-24T06:09:03;10.20;99.90
11615;DHT22;5863;52.832;4.758;2023-04-24T06:11:30;10.20;99.90
11615;DHT22;5863;52.832;4.758;2023-04-24T06:13:57;10.20;99.90
11615;DHT22;5863;52.832;4.758;2023-04-24T06:16:27;10.30;99.90
11615;DHT22;5863;52.832;4.758;2023-04-24T06:18:54;10.20;99.90
11615;DHT22;5863;52.832;4.758;2023-04-24T06:21:20;10.20;99.90
11615;DHT22;5863;52.832;4.758;2023-04-24T06:23:47;10.30;99.90
11615;DHT22;5863;52.832;4.758;2023-04-24T06:26:15;10.30;99.90
11615;DHT22;5863;52.832;4.758;2023-04-24T06:28:41;10.30;99.90
11615;DHT22;5863;52.832;4.758;2023-04-24T06:31:08;10.30;99.90
11615;DHT22;5863;52.832;4.758;2023-04-24T06:33:36;10.40;99.90
11615;DHT22;5863;52.832;4.758;2023-04-24T06:36:03;10.40;99.90
11615;DHT22;5863;52.832;4.758;2023-04-24T06:38:30;10.40;99.90
11615;DHT22;5863;52.832;4.758;2023-04-24T06:40:57;10.40;99.90
11615;DHT22;5863;52.832;4.758;2023-04-24T06:43:23;10.30;99.90
11615;DHT22;5863;52.832;4.758;2023-04-24T06:45:50;10.40;99.90
11615;DHT22;5863;52.832;4.758;2023-04-24T06:48:17;10.40;99.90
11615;DHT22;5863;52.832;4.758;2023-04-24T06:50:45;10.40;99.90
11615;DHT22;5863;52.832;4.758;2023-04-24T06:53:12;10.50;99.90
11615;DHT22;5863;52.832;4.758;2023-04-24T06:55:40;10.50;99.90
11615;DHT22;5863;52.832;4.758;2023-04-24T06:58:06;10.50;99.90
11615;DHT22;5863;52.832;4.758;2023-04-24T07:00:33;10.50;99.90
11615;DHT22;5863;52.832;4.758;2023-04-24T07:03:00;10.50;99.90
11615;DHT22;5863;52.832;4.758;2023-04-24T07:05:27;10.60;99.90
11615;DHT22;5863;52.832;4.758;2023-04-24T07:07:56;10.50;99.90
11615;DHT22;5863;52.832;4.758;2023-04-24T07:10:24;10.50;99.90
11615;DHT22;5863;52.832;4.758;2023-04-24T07:12:52;10.50;99.90
11615;DHT22;5863;52.832;4.758;2023-04-24T07:15:19;10.50;99.90
11615;DHT22;5863;52.832;4.758;2023-04-24T07:17:46;10.50;99.90
11615;DHT22;5863;52.832;4.758;2023-04-24T07:20:12;10.40;99.90
11615;DHT22;5863;52.832;4.758;2023-04-24T07:22:40;10.40;99.90
11615;DHT22;5863;52.832;4.758;2023-04-24T07:25:09;10.40;99.90
11615;DHT22;5863;52.832;4.758;2023-04-24T07:27:35;10.40;99.90
11615;DHT22;5863;52.832;4.758;2023-04-24T07:30:03;10.20;99.90
11615;DHT22;5863;52.832;4.758;2023-04-24T07:32:30;10.20;99.90
11615;DHT22;5863;52.832;4.758;2023-04-24T07:34:56;10.30;99.90
11615;DHT22;5863;52.832;4.758;2023-04-24T07:37:23;10.20;99.90
11615;DHT22;5863;52.832;4.758;2023-04-24T07:39:50;10.10;99.90
11615;DHT22;5863;52.832;4.758;2023-04-24T07:42:18;10.20;99.90
11615;DHT22;5863;52.832;4.758;2023-04-24T07:44:45;10.20;99.90
11615;DHT22;5863;52.832;4.758;2023-04-24T07:47:13;10.30;99.90
11615;DHT22;5863;52.832;4.758;2023-04-24T07:49:41;10.30;99.90
11615;DHT22;5863;52.832;4.758;2023-04-24T07:52:07;10.40;99.90
11615;DHT22;5863;52.832;4.758;2023-04-24T07:54:34;10.30;99.90
11615;DHT22;5863;52.832;4.758;2023-04-24T07:57:02;10.20;99.90
11615;DHT22;5863;52.832;4.758;2023-04-24T07:59:32;10.20;99.90
11615;DHT22;5863;52.832;4.758;2023-04-24T08:01:59;10.30;99.90
11615;DHT22;5863;52.832;4.758;2023-04-24T08:04:26;10.30;99.90
11615;DHT22;5863;52.832;4.758;2023-04-24T08:06:53;10.40;99.90
11615;DHT22;5863;52.832;4.758;2023-04-24T08:09:20;10.30;99.90
11615;DHT22;5863;52.832;4.758;2023-04-24T08:11:48;10.40;99.90
11615;DHT22;5863;52.832;4.758;2023-04-24T08:14:15;10.40;99.90
11615;DHT22;5863;52.832;4.758;2023-04-24T08:16:43;10.50;99.90
11615;DHT22;5863;52.832;4.758;2023-04-24T08:19:10;10.60;99.90
11615;DHT22;5863;52.832;4.758;2023-04-24T08:21:36;10.60;99.90
11615;DHT22;5863;52.832;4.758;2023-04-24T08:24:03;10.70;99.90
11615;DHT22;5863;52.832;4.758;2023-04-24T08:26:33;10.70;99.90
11615;DHT22;5863;52.832;4.758;2023-04-24T08:29:00;10.70;99.90
11615;DHT22;5863;52.832;4.758;2023-04-24T08:31:27;10.80;99.90
11615;DHT22;5863;52.832;4.758;2023-04-24T08:33:55;10.70;99.90
11615;DHT22;5863;52.832;4.758;2023-04-24T08:36:26;10.70;99.90
11615;DHT22;5863;52.832;4.758;2023-04-24T08:38:53;10.70;99.90
11615;DHT22;5863;52.832;4.758;2023-04-24T08:41:20;10.70;99.90
11615;DHT22;5863;52.832;4.758;2023-04-24T08:43:56;10.70;99.90
11615;DHT22;5863;52.832;4.758;2023-04-24T08:46:24;10.70;99.90
11615;DHT22;5863;52.832;4.758;2023-04-24T08:48:52;10.70;99.90
11615;DHT22;5863;52.832;4.758;2023-04-24T08:51:20;10.80;99.90
11615;DHT22;5863;52.832;4.758;2023-04-24T08:53:48;10.70;99.90
11615;DHT22;5863;52.832;4.758;2023-04-24T08:56:15;10.80;99.90
11615;DHT22;5863;52.832;4.758;2023-04-24T08:58:43;10.80;99.90
11615;DHT22;5863;52.832;4.758;2023-04-24T09:01:11;10.80;99.90
11615;DHT22;5863;52.832;4.758;2023-04-24T09:03:38;10.80;99.90
11615;DHT22;5863;52.832;4.758;2023-04-24T09:06:06;10.90;99.90
11615;DHT22;5863;52.832;4.758;2023-04-24T09:08:35;11.00;99.90
11615;DHT22;5863;52.832;4.758;2023-04-24T09:11:02;11.00;99.90
11615;DHT22;5863;52.832;4.758;2023-04-24T09:13:30;11.00;99.90
11615;DHT22;5863;52.832;4.758;2023-04-24T09:15:58;11.10;99.90
11615;DHT22;5863;52.832;4.758;2023-04-24T09:18:26;11.00;99.90
11615;DHT22;5863;52.832;4.758;2023-04-24T09:21:00;11.00;99.90
11615;DHT22;5863;52.832;4.758;2023-04-24T09:23:28;11.10;99.90
11615;DHT22;5863;52.832;4.758;2023-04-24T09:25:57;11.00;99.90
11615;DHT22;5863;52.832;4.758;2023-04-24T09:28:26;11.10;99.90
11615;DHT22;5863;52.832;4.758;2023-04-24T09:31:04;11.10;99.90
11615;DHT22;5863;52.832;4.758;2023-04-24T09:33:53;11.10;99.90
11615;DHT22;5863;52.832;4.758;2023-04-24T09:36:27;11.10;99.90
11615;DHT22;5863;52.832;4.758;2023-04-24T09:38:57;11.00;99.90
11615;DHT22;5863;52.832;4.758;2023-04-24T09:41:27;11.00;99.90
11615;DHT22;5863;52.832;4.758;2023-04-24T09:43:55;10.90;99.90
11615;DHT22;5863;52.832;4.758;2023-04-24T09:46:29;10.90;99.90
11615;DHT22;5863;52.832;4.758;2023-04-24T09:48:57;10.80;99.90
11615;DHT22;5863;52.832;4.758;2023-04-24T09:51:42;10.90;99.90
11615;DHT22;5863;52.832;4.758;2023-04-24T09:54:14;11.00;99.90
11615;DHT22;5863;52.832;4.758;2023-04-24T09:56:44;10.90;99.90
11615;DHT22;5863;52.832;4.758;2023-04-24T09:59:15;10.90;99.90
11615;DHT22;5863;52.832;4.758;2023-04-24T10:01:42;10.80;99.90
11615;DHT22;5863;52.832;4.758;2023-04-24T10:04:16;10.70;99.90
11615;DHT22;5863;52.832;4.758;2023-04-24T10:06:45;10.60;99.90
11615;DHT22;5863;52.832;4.758;2023-04-24T10:09:12;10.60;99.90
11615;DHT22;5863;52.832;4.758;2023-04-24T10:11:41;10.60;99.90
11615;DHT22;5863;52.832;4.758;2023-04-24T10:14:12;10.70;99.90
11615;DHT22;5863;52.832;4.758;2023-04-24T10:16:39;10.80;99.90
11615;DHT22;5863;52.832;4.758;2023-04-24T10:19:06;10.80;99.90
11615;DHT22;5863;52.832;4.758;2023-04-24T10:21:34;10.90;99.90
11615;DHT22;5863;52.832;4.758;2023-04-24T10:24:01;11.00;99.90
11615;DHT22;5863;52.832;4.758;2023-04-24T10:26:30;11.10;99.90
11615;DHT22;5863;52.832;4.758;2023-04-24T10:28:58;11.10;99.90
11615;DHT22;5863;52.832;4.758;2023-04-24T10:31:28;11.20;99.90
11615;DHT22;5863;52.832;4.758;2023-04-24T10:33:58;11.30;99.90
11615;DHT22;5863;52.832;4.758;2023-04-24T10:36:27;11.40;99.90
11615;DHT22;5863;52.832;4.758;2023-04-24T10:39:00;11.40;99.90
11615;DHT22;5863;52.832;4.758;2023-04-24T10:41:27;11.50;99.90
11615;DHT22;5863;52.832;4.758;2023-04-24T10:44:04;11.60;99.90
11615;DHT22;5863;52.832;4.758;2023-04-24T10:46:33;11.70;99.90
11615;DHT22;5863;52.832;4.758;2023-04-24T10:49:04;11.80;99.90
11615;DHT22;5863;52.832;4.758;2023-04-24T10:51:45;12.00;99.90
11615;DHT22;5863;52.832;4.758;2023-04-24T10:54:25;12.10;99.90
11615;DHT22;5863;52.832;4.758;2023-04-24T10:56:53;12.30;99.90
11615;DHT22;5863;52.832;4.758;2023-04-24T10:59:26;12.30;99.90
11615;DHT22;5863;52.832;4.758;2023-04-24T11:01:55;12.50;99.90
11615;DHT22;5863;52.832;4.758;2023-04-24T11:04:32;12.60;99.90
11615;DHT22;5863;52.832;4.758;2023-04-24T11:06:58;12.60;99.90
11615;DHT22;5863;52.832;4.758;2023-04-24T11:09:26;12.50;99.90
11615;DHT22;5863;52.832;4.758;2023-04-24T11:12:03;12.40;99.90
11615;DHT22;5863;52.832;4.758;2023-04-24T11:15:01;12.30;99.90
11615;DHT22;5863;52.832;4.758;2023-04-24T11:17:34;12.20;99.90
11615;DHT22;5863;52.832;4.758;2023-04-24T11:20:03;12.10;99.90
11615;DHT22;5863;52.832;4.758;2023-04-24T11:22:33;12.00;99.90
11615;DHT22;5863;52.832;4.758;2023-04-24T11:25:00;12.10;99.90
11615;DHT22;5863;52.832;4.758;2023-04-24T11:27:30;12.10;99.90
11615;DHT22;5863;52.832;4.758;2023-04-24T11:30:00;12.10;99.90
11615;DHT22;5863;52.832;4.758;2023-04-24T11:32:28;12.30;99.90
11615;DHT22;5863;52.832;4.758;2023-04-24T11:34:58;12.30;99.90
11615;DHT22;5863;52.832;4.758;2023-04-24T11:37:27;12.40;99.90
11615;DHT22;5863;52.832;4.758;2023-04-24T11:39:55;12.40;99.90
11615;DHT22;5863;52.832;4.758;2023-04-24T11:42:22;12.30;99.90
11615;DHT22;5863;52.832;4.758;2023-04-24T11:44:49;12.30;99.90
11615;DHT22;5863;52.832;4.758;2023-04-24T11:47:16;12.20;99.90
11615;DHT22;5863;52.832;4.758;2023-04-24T11:49:43;12.30;99.90
11615;DHT22;5863;52.832;4.758;2023-04-24T11:52:19;12.50;99.90
11615;DHT22;5863;52.832;4.758;2023-04-24T11:54:50;12.70;99.90
11615;DHT22;5863;52.832;4.758;2023-04-24T11:57:20;12.70;99.90
11615;DHT22;5863;52.832;4.758;2023-04-24T11:59:47;12.90;99.90
11615;DHT22;5863;52.832;4.758;2023-04-24T12:02:21;12.90;99.90
11615;DHT22;5863;52.832;4.758;2023-04-24T12:04:48;13.00;99.90
11615;DHT22;5863;52.832;4.758;2023-04-24T12:07:14;13.10;99.90
11615;DHT22;5863;52.832;4.758;2023-04-24T12:09:44;13.10;99.90
11615;DHT22;5863;52.832;4.758;2023-04-24T12:12:12;13.20;99.90
11615;DHT22;5863;52.832;4.758;2023-04-24T12:14:47;13.30;99.90
11615;DHT22;5863;52.832;4.758;2023-04-24T12:17:14;13.40;99.90
11615;DHT22;5863;52.832;4.758;2023-04-24T12:19:45;13.40;99.90
11615;DHT22;5863;52.832;4.758;2023-04-24T12:22:12;13.30;99.90
11615;DHT22;5863;52.832;4.758;2023-04-24T12:24:59;13.30;99.90
11615;DHT22;5863;52.832;4.758;2023-04-24T12:27:28;13.20;99.90
11615;DHT22;5863;52.832;4.758;2023-04-24T12:29:56;13.10;99.90
11615;DHT22;5863;52.832;4.758;2023-04-24T12:32:23;13.00;99.90
11615;DHT22;5863;52.832;4.758;2023-04-24T12:34:51;12.90;99.90
11615;DHT22;5863;52.832;4.758;2023-04-24T12:37:18;12.90;99.90
11615;DHT22;5863;52.832;4.758;2023-04-24T12:40:00;12.80;99.90
11615;DHT22;5863;52.832;4.758;2023-04-24T12:42:28;12.70;99.90
11615;DHT22;5863;52.832;4.758;2023-04-24T12:44:59;12.70;99.90
11615;DHT22;5863;52.832;4.758;2023-04-24T12:47:26;12.80;99.90
11615;DHT22;5863;52.832;4.758;2023-04-24T12:49:53;13.00;99.90
11615;DHT22;5863;52.832;4.758;2023-04-24T12:52:22;13.00;99.90
11615;DHT22;5863;52.832;4.758;2023-04-24T12:54:49;13.10;99.90
11615;DHT22;5863;52.832;4.758;2023-04-24T12:57:18;13.20;99.90
11615;DHT22;5863;52.832;4.758;2023-04-24T12:59:45;13.20;99.90
11615;DHT22;5863;52.832;4.758;2023-04-24T13:02:12;13.20;99.90
11615;DHT22;5863;52.832;4.758;2023-04-24T13:04:39;13.20;99.90
11615;DHT22;5863;52.832;4.758;2023-04-24T13:07:05;13.10;99.90
11615;DHT22;5863;52.832;4.758;2023-04-24T13:09:34;13.10;99.90
11615;DHT22;5863;52.832;4.758;2023-04-24T13:12:00;13.10;99.90
11615;DHT22;5863;52.832;4.758;2023-04-24T13:14:29;13.00;99.90
11615;DHT22;5863;52.832;4.758;2023-04-24T13:16:55;12.90;99.90
11615;DHT22;5863;52.832;4.758;2023-04-24T13:19:24;12.70;99.90
11615;DHT22;5863;52.832;4.758;2023-04-24T13:21:51;12.60;99.90
11615;DHT22;5863;52.832;4.758;2023-04-24T13:24:18;12.50;99.90
11615;DHT22;5863;52.832;4.758;2023-04-24T13:26:45;12.40;99.90
11615;DHT22;5863;52.832;4.758;2023-04-24T13:29:12;12.50;99.90
11615;DHT22;5863;52.832;4.758;2023-04-24T13:31:40;12.50;99.90
11615;DHT22;5863;52.832;4.758;2023-04-24T13:34:06;12.40;99.90
11615;DHT22;5863;52.832;4.758;2023-04-24T13:36:33;12.30;99.90
11615;DHT22;5863;52.832;4.758;2023-04-24T13:39:00;12.30;99.90
11615;DHT22;5863;52.832;4.758;2023-04-24T13:41:28;12.30;99.90
11615;DHT22;5863;52.832;4.758;2023-04-24T13:43:55;12.30;99.90
11615;DHT22;5863;52.832;4.758;2023-04-24T13:46:22;12.30;99.90
11615;DHT22;5863;52.832;4.758;2023-04-24T13:48:50;12.20;99.90
11615;DHT22;5863;52.832;4.758;2023-04-24T13:51:16;12.20;99.90
11615;DHT22;5863;52.832;4.758;2023-04-24T13:53:43;12.20;99.90
11615;DHT22;5863;52.832;4.758;2023-04-24T13:56:11;12.20;99.90
11615;DHT22;5863;52.832;4.758;2023-04-24T13:58:39;12.20;99.90
11615;DHT22;5863;52.832;4.758;2023-04-24T14:01:06;12.20;99.90
11615;DHT22;5863;52.832;4.758;2023-04-24T14:03:33;12.20;99.90
11615;DHT22;5863;52.832;4.758;2023-04-24T14:06:01;12.20;99.90
11615;DHT22;5863;52.832;4.758;2023-04-24T14:08:28;12.10;99.90
11615;DHT22;5863;52.832;4.758;2023-04-24T14:10:55;12.20;99.90
11615;DHT22;5863;52.832;4.758;2023-04-24T14:13:22;12.20;99.90
11615;DHT22;5863;52.832;4.758;2023-04-24T14:15:48;12.20;99.90
11615;DHT22;5863;52.832;4.758;2023-04-24T14:18:15;12.20;99.90
11615;DHT22;5863;52.832;4.758;2023-04-24T14:20:42;12.20;99.90
11615;DHT22;5863;52.832;4.758;2023-04-24T14:23:10;12.20;99.90
11615;DHT22;5863;52.832;4.758;2023-04-24T14:25:37;12.20;99.90
11615;DHT22;5863;52.832;4.758;2023-04-24T14:28:05;12.10;99.90
11615;DHT22;5863;52.832;4.758;2023-04-24T14:30:32;12.00;99.90
11615;DHT22;5863;52.832;4.758;2023-04-24T14:32:59;11.90;99.90
11615;DHT22;5863;52.832;4.758;2023-04-24T14:35:25;11.80;99.90
11615;DHT22;5863;52.832;4.758;2023-04-24T14:37:54;11.70;99.90
11615;DHT22;5863;52.832;4.758;2023-04-24T14:40:22;11.70;99.90
11615;DHT22;5863;52.832;4.758;2023-04-24T14:42:49;11.60;99.90
11615;DHT22;5863;52.832;4.758;2023-04-24T14:45:16;11.50;99.90
11615;DHT22;5863;52.832;4.758;2023-04-24T14:47:42;11.60;99.90
11615;DHT22;5863;52.832;4.758;2023-04-24T14:50:09;11.60;99.90
11615;DHT22;5863;52.832;4.758;2023-04-24T14:52:39;11.50;99.90
11615;DHT22;5863;52.832;4.758;2023-04-24T14:55:07;11.50;99.90
11615;DHT22;5863;52.832;4.758;2023-04-24T14:57:35;11.40;99.90
11615;DHT22;5863;52.832;4.758;2023-04-24T15:00:03;11.40;99.90
11615;DHT22;5863;52.832;4.758;2023-04-24T15:02:32;11.40;99.90
11615;DHT22;5863;52.832;4.758;2023-04-24T15:04:59;11.40;99.90
11615;DHT22;5863;52.832;4.758;2023-04-24T15:07:26;11.40;99.90
11615;DHT22;5863;52.832;4.758;2023-04-24T15:09:53;11.40;99.90
11615;DHT22;5863;52.832;4.758;2023-04-24T15:12:20;11.40;99.90
11615;DHT22;5863;52.832;4.758;2023-04-24T15:14:48;11.40;99.90
11615;DHT22;5863;52.832;4.758;2023-04-24T15:17:15;11.40;99.90
11615;DHT22;5863;52.832;4.758;2023-04-24T15:19:42;11.40;99.90
11615;DHT22;5863;52.832;4.758;2023-04-24T15:22:09;11.40;99.90
11615;DHT22;5863;52.832;4.758;2023-04-24T15:24:36;11.30;99.90
11615;DHT22;5863;52.832;4.758;2023-04-24T15:27:02;11.20;99.90
11615;DHT22;5863;52.832;4.758;2023-04-24T15:29:29;11.20;99.90
11615;DHT22;5863;52.832;4.758;2023-04-24T15:31:57;11.20;99.90
11615;DHT22;5863;52.832;4.758;2023-04-24T15:34:25;11.20;99.90
11615;DHT22;5863;52.832;4.758;2023-04-24T15:36:52;11.20;99.90
11615;DHT22;5863;52.832;4.758;2023-04-24T15:39:22;11.00;99.90
11615;DHT22;5863;52.832;4.758;2023-04-24T15:41:50;11.10;99.90
11615;DHT22;5863;52.832;4.758;2023-04-24T15:44:18;11.10;99.90
11615;DHT22;5863;52.832;4.758;2023-04-24T15:46:45;11.10;99.90
11615;DHT22;5863;52.832;4.758;2023-04-24T15:49:14;11.20;99.90